Hauptseite
METAR-TAF:

METAR-TAF

Flughäfen :

Flughafen Magadan

Magadan, Russland

Breite: 59-33N, Länge: 150-47E, Höhe: 118 m

Beobachtung

Neuester Wetterbericht von vor 21 Minuten, um 18:00 UTC
Wind 2 kt aus Ost
Temperatur -10°C
Luftfeuchtigkeit 100%
Luftdruck 1018 hPa
Sichtweite 10 km oder mehr

METAR: UHMM 221800Z 08001MPS 9999 NSC M10/M10 Q1018 RMK QFE748 R28/09003MPS

Zeit: 05:21 (18:21 UTC)

Prognose

Neuester Wetterbericht von vor 1 Stunde und 22 Minuten, um 16:59 UTC
Gültige Prognose vom 22 um 18 UTC bis 23 um 24 UTC
Wind 6 kt aus West/Südwest, Böen bis zu 16 kt
Sichtweite 10 km oder mehr
Zeitweise
vom 22 um 18 UTC bis 22 um 23 UTC
Sichtweite: 0500 m
in der Höhe von 400 ft
Gefrierender Nebel,

TAF: UHMM 221659Z 2218/2324 24003G08MPS 9999 NSC TEMPO 2218/2223 0500 FZFG VV004

Wetterbeobachtungen und Prognosen von mehr als 4000 Flughäfen (METAR und TAF Bericht).

Die verfügbaren Stationen werden durch gelbe und rote Markierungen auf der Karte dargestellt.

Führen Sie die Maus auf sie, um den Namen der Station zu sehen.

Darauf klicken, um die Beobachtung von Wetterbeobachtungen und Prognosen zu sehen.

Um die Karte zu ändern : klicken Sie auf den grünen Tasten mit einem schwarzen Kreuz Zum Vergrößern, auf den grünen Button mit einem Gedankenstrich zu verkleinern, oder auf die grünen Pfeile für benachbarte Karten.


METAR-TAF: